Time;durP1;ratioP1;P1;durP2;ratioP2;P2;SDS_P1;SDS_P2;PMS_P1;PMS_P2;Temp;Humidity;BMP_temperature;BMP_pressure;BME280_temperature;BME280_humidity;BME280_pressure;Samples;Min_cycle;Max_cycle;Signal;HPM_P1;HPM_P2
2022/03/13 00:02:02;;;;;;;;;;;;;;;;;;5082969;28;20387;-79
2022/03/13 00:04:28;;;;;;;;;;;;;;;;;;5083503;28;19947;-78
2022/03/13 00:06:56;;;;;;;;;;;;;;;;;;5081025;28;19968;-79
2022/03/13 00:09:22;;;;;;;;;;;;;;;;;;5084980;28;19985;-79
2022/03/13 00:11:53;;;;;;;;;;;;;;;;;;5083198;28;19959;-80
2022/03/13 00:14:20;;;;;;;;;;;;;;;;;;5079581;28;20441;-79
2022/03/13 00:16:46;;;;;;;;;;;;;;;;;;5081975;28;19955;-79
2022/03/13 00:19:12;;;;;;;;;;;;;;;;;;5076958;28;20429;-78
2022/03/13 00:21:39;;;;;;;;;;;;;;;;;;5086924;28;19967;-78
2022/03/13 00:24:05;;;;;;;;;;;;;;;;;;5086443;28;19960;-78
2022/03/13 00:26:35;;;;;;;;;;;;;;;;;;5086385;28;19967;-79
2022/03/13 00:29:01;;;;;;;;;;;;;;;;;;5085096;28;20013;-79
2022/03/13 00:31:27;;;;;;;;;;;;;;;;;;5083980;28;19916;-80
2022/03/13 00:33:54;;;;;;;;;;;;;;;;;;5082850;28;19963;-79
2022/03/13 00:36:20;;;;;;;;;;;;;;;;;;5082999;28;19971;-79
2022/03/13 00:38:46;;;;;;;;;;;;;;;;;;5089559;28;19966;-81
2022/03/13 00:41:12;;;;;;;;;;;;;;;;;;5093459;28;19923;-79
2022/03/13 00:43:39;;;;;;;;;;;;;;;;;;5094767;28;19916;-78
2022/03/13 00:46:05;;;;;;;;;;;;;;;;;;5094349;28;19923;-79
2022/03/13 00:48:31;;;;;;;;;;;;;;;;;;5087408;28;20007;-79
2022/03/13 00:50:59;;;;;;;;;;;;;;;;;;5096792;28;20096;-78
2022/03/13 00:53:25;;;;;;;;;;;;;;;;;;5082413;28;19984;-78
2022/03/13 00:55:51;;;;;;;;;;;;;;;;;;5089953;28;19955;-79
2022/03/13 00:58:18;;;;;;;;;;;;;;;;;;5082080;28;19963;-77
2022/03/13 01:00:44;;;;;;;;;;;;;;;;;;5086056;28;19997;-78
2022/03/13 01:03:11;;;;;;;;;;;;;;;;;;5080700;28;20003;-79
2022/03/13 01:05:37;;;;;;;;;;;;;;;;;;5084743;28;19960;-79
2022/03/13 01:08:03;;;;;;;;;;;;;;;;;;5084749;28;19985;-79
2022/03/13 01:10:29;;;;;;;;;;;;;;;;;;5080853;28;19954;-79
2022/03/13 01:12:55;;;;;;;;;;;;;;;;;;5084602;28;19947;-79
2022/03/13 01:15:22;;;;;;;;;;;;;;;;;;5085280;28;21788;-79
2022/03/13 01:17:48;;;;;;;;;;;;;;;;;;5083569;28;20560;-79
2022/03/13 01:20:14;;;;;;;;;;;;;;;;;;5073086;28;20438;-79
2022/03/13 01:22:40;;;;;;;;;;;;;;;;;;5085832;28;20355;-79
2022/03/13 01:25:06;;;;;;;;;;;;;;;;;;5083767;28;19967;-78
2022/03/13 01:27:35;;;;;;;;;;;;;;;;;;5078963;28;19924;-78
2022/03/13 01:30:03;;;;;;;;;;;;;;;;;;5077688;28;19982;-78
2022/03/13 01:32:32;;;;;;;;;;;;;;;;;;5085073;28;19964;-78
2022/03/13 01:34:59;;;;;;;;;;;;;;;;;;5077321;28;19952;-79
2022/03/13 01:37:26;;;;;;;;;;;;;;;;;;5084204;28;20024;-79
2022/03/13 01:39:52;;;;;;;;;;;;;;;;;;5089523;28;19943;-78
2022/03/13 01:42:18;;;;;;;;;;;;;;;;;;5090767;28;20442;-78
2022/03/13 01:44:45;;;;;;;;;;;;;;;;;;5086863;28;20600;-79
2022/03/13 01:47:11;;;;;;;;;;;;;;;;;;5087534;28;19948;-78
2022/03/13 01:49:38;;;;;;;;;;;;;;;;;;5089212;28;20012;-79
2022/03/13 01:52:04;;;;;;;;;;;;;;;;;;5084458;28;19982;-79
2022/03/13 01:54:33;;;;;;;;;;;;;;;;;;5083681;28;19959;-79
2022/03/13 01:57:01;;;;;;;;;;;;;;;;;;5082249;28;19956;-78
2022/03/13 01:59:27;;;;;;;;;;;;;;;;;;5088863;28;19955;-79
2022/03/13 02:01:54;;;;;;;;;;;;;;;;;;5089389;28;20494;-78
2022/03/13 02:04:20;;;;;;;;;;;;;;;;;;5088417;28;19951;-78
2022/03/13 02:06:46;;;;;;;;;;;;;;;;;;5091391;28;19919;-78
2022/03/13 02:09:13;;;;;;;;;;;;;;;;;;5090743;28;19923;-78
2022/03/13 02:11:40;;;;;;;;;;;;;;;;;;5072958;28;20374;-78
2022/03/13 02:14:07;;;;;;;;;;;;;;;;;;5087512;28;20462;-77
2022/03/13 02:16:33;;;;;;;;;;;;;;;;;;5090529;28;20012;-78
2022/03/13 02:19:00;;;;;;;;;;;;;;;;;;5088497;28;19951;-77
2022/03/13 02:21:26;;;;;;;;;;;;;;;;;;5080624;28;19958;-77
2022/03/13 02:23:52;;;;;;;;;;;;;;;;;;5086504;28;20005;-77
2022/03/13 02:26:18;;;;;;;;;;;;;;;;;;5084161;28;19963;-77
2022/03/13 02:28:44;;;;;;;;;;;;;;;;;;5081880;28;19963;-77
2022/03/13 02:31:11;;;;;;;;;;;;;;;;;;5102207;28;19952;-77
2022/03/13 02:33:37;;;;;;;;;;;;;;;;;;5086828;28;19952;-77
2022/03/13 02:36:03;;;;;;;;;;;;;;;;;;5087544;28;19952;-77
2022/03/13 02:38:29;;;;;;;;;;;;;;;;;;5082331;28;19986;-77
2022/03/13 02:40:55;;;;;;;;;;;;;;;;;;5087442;28;19952;-77
2022/03/13 02:43:22;;;;;;;;;;;;;;;;;;5085122;28;19950;-77
2022/03/13 02:45:48;;;;;;;;;;;;;;;;;;5084873;28;20347;-77
2022/03/13 02:48:16;;;;;;;;;;;;;;;;;;5085214;28;19970;-78
2022/03/13 02:50:42;;;;;;;;;;;;;;;;;;5084919;28;19947;-77
2022/03/13 02:53:09;;;;;;;;;;;;;;;;;;5086319;28;20704;-77
2022/03/13 02:55:35;;;;;;;;;;;;;;;;;;5082680;28;19975;-77
2022/03/13 02:58:02;;;;;;;;;;;;;;;;;;5084561;28;20030;-78
2022/03/13 03:00:28;;;;;;;;;;;;;;;;;;5067139;28;19952;-77
2022/03/13 03:02:54;;;;;;;;;;;;;;;;;;5081861;28;20356;-78
2022/03/13 03:05:20;;;;;;;;;;;;;;;;;;5089707;28;19954;-77
2022/03/13 03:07:46;;;;;;;;;;;;;;;;;;5085733;28;20427;-77
2022/03/13 03:10:13;;;;;;;;;;;;;;;;;;5099758;28;20672;-77
2022/03/13 03:12:39;;;;;;;;;;;;;;;;;;5085713;28;19951;-77
2022/03/13 03:15:06;;;;;;;;;;;;;;;;;;5087803;28;20410;-77
2022/03/13 03:17:32;;;;;;;;;;;;;;;;;;5092619;28;19959;-77
2022/03/13 03:19:58;;;;;;;;;;;;;;;;;;5107095;28;19951;-77
2022/03/13 03:22:25;;;;;;;;;;;;;;;;;;5108030;28;20293;-77
2022/03/13 03:24:51;;;;;;;;;;;;;;;;;;5109906;28;20071;-77
2022/03/13 03:27:18;;;;;;;;;;;;;;;;;;5093339;28;19919;-78
2022/03/13 03:29:44;;;;;;;;;;;;;;;;;;5111575;28;20341;-77
2022/03/13 03:32:10;;;;;;;;;;;;;;;;;;5103911;28;19943;-77
2022/03/13 03:34:36;;;;;;;;;;;;;;;;;;5083809;28;20095;-78
2022/03/13 03:37:02;;;;;;;;;;;;;;;;;;5081781;28;19924;-77
2022/03/13 03:39:29;;;;;;;;;;;;;;;;;;5083903;28;19951;-77
2022/03/13 03:41:55;;;;;;;;;;;;;;;;;;5086959;28;19958;-78
2022/03/13 03:44:21;;;;;;;;;;;;;;;;;;5095732;27;20376;-79
2022/03/13 03:46:47;;;;;;;;;;;;;;;;;;5085884;28;19959;-78
2022/03/13 03:49:13;;;;;;;;;;;;;;;;;;5063984;28;19962;-78
2022/03/13 03:51:40;;;;;;;;;;;;;;;;;;5087518;28;19950;-78
2022/03/13 03:54:06;;;;;;;;;;;;;;;;;;5053611;28;20393;-78
2022/03/13 03:56:32;;;;;;;;;;;;;;;;;;5075521;28;20391;-78
2022/03/13 03:58:59;;;;;;;;;;;;;;;;;;5067457;28;19950;-77
2022/03/13 04:01:25;;;;;;;;;;;;;;;;;;5083217;28;20015;-77
2022/03/13 04:03:51;;;;;;;;;;;;;;;;;;5084869;28;19943;-77
2022/03/13 04:06:17;;;;;;;;;;;;;;;;;;5086580;28;19955;-77
2022/03/13 04:08:43;;;;;;;;;;;;;;;;;;5086162;28;20384;-78
2022/03/13 04:11:10;;;;;;;;;;;;;;;;;;5082223;28;20345;-78
2022/03/13 04:13:38;;;;;;;;;;;;;;;;;;5087617;28;19968;-78
2022/03/13 04:16:04;;;;;;;;;;;;;;;;;;5081951;28;19992;-78
2022/03/13 04:18:31;;;;;;;;;;;;;;;;;;5088168;28;19962;-78
2022/03/13 04:20:57;;;;;;;;;;;;;;;;;;5086111;28;19936;-78
2022/03/13 04:23:25;;;;;;;;;;;;;;;;;;5085689;28;19969;-77
2022/03/13 04:25:51;;;;;;;;;;;;;;;;;;5078511;28;20386;-77
2022/03/13 04:28:17;;;;;;;;;;;;;;;;;;5086769;28;19959;-77
2022/03/13 04:30:44;;;;;;;;;;;;;;;;;;5087304;28;19959;-78
2022/03/13 04:33:11;;;;;;;;;;;;;;;;;;5086124;28;20441;-76
2022/03/13 04:35:37;;;;;;;;;;;;;;;;;;5085113;28;20001;-76
2022/03/13 04:38:03;;;;;;;;;;;;;;;;;;5081959;28;19948;-77
2022/03/13 04:40:32;;;;;;;;;;;;;;;;;;5079456;28;19987;-78
2022/03/13 04:42:59;;;;;;;;;;;;;;;;;;5084766;28;19912;-78
2022/03/13 04:45:26;;;;;;;;;;;;;;;;;;5084465;28;19987;-78
2022/03/13 04:47:55;;;;;;;;;;;;;;;;;;5082640;28;19997;-77
2022/03/13 04:50:22;;;;;;;;;;;;;;;;;;5087001;28;19916;-78
2022/03/13 04:52:48;;;;;;;;;;;;;;;;;;5086405;28;19952;-78
2022/03/13 04:55:15;;;;;;;;;;;;;;;;;;5082706;28;20261;-77
2022/03/13 04:57:41;;;;;;;;;;;;;;;;;;5083341;28;19974;-77
2022/03/13 05:00:07;;;;;;;;;;;;;;;;;;5084391;28;20417;-77
2022/03/13 05:02:33;;;;;;;;;;;;;;;;;;5081792;28;19962;-77
2022/03/13 05:04:59;;;;;;;;;;;;;;;;;;5082165;28;20060;-76
2022/03/13 05:07:26;;;;;;;;;;;;;;;;;;5080473;28;19952;-76
2022/03/13 05:09:52;;;;;;;;;;;;;;;;;;5076751;28;19952;-77
2022/03/13 05:12:21;;;;;;;;;;;;;;;;;;5080227;28;19963;-76
2022/03/13 05:14:47;;;;;;;;;;;;;;;;;;5085289;28;19967;-76
2022/03/13 05:17:14;;;;;;;;;;;;;;;;;;5075751;28;19963;-76
2022/03/13 05:19:44;;;;;;;;;;;;;;;;;;5084421;28;19951;-76
2022/03/13 05:22:10;;;;;;;;;;;;;;;;;;5085515;28;19958;-76
2022/03/13 05:24:36;;;;;;;;;;;;;;;;;;5085605;28;20381;-76
2022/03/13 05:27:02;;;;;;;;;;;;;;;;;;5082826;28;19943;-79
2022/03/13 05:29:29;;;;;;;;;;;;;;;;;;5085761;28;19963;-78
2022/03/13 05:31:55;;;;;;;;;;;;;;;;;;5083225;28;19958;-78
2022/03/13 05:34:21;;;;;;;;;;;;;;;;;;5085634;28;19959;-77
2022/03/13 05:36:47;;;;;;;;;;;;;;;;;;5084708;28;20026;-78
2022/03/13 05:39:13;;;;;;;;;;;;;;;;;;5082460;28;20033;-78
2022/03/13 05:41:40;;;;;;;;;;;;;;;;;;5083278;28;20005;-78
2022/03/13 05:44:08;;;;;;;;;;;;;;;;;;5082135;28;19920;-78
2022/03/13 05:46:34;;;;;;;;;;;;;;;;;;5094425;28;19985;-77
2022/03/13 05:49:01;;;;;;;;;;;;;;;;;;5084663;28;19975;-78
2022/03/13 05:51:27;;;;;;;;;;;;;;;;;;5082443;28;19943;-77
2022/03/13 05:53:53;;;;;;;;;;;;;;;;;;5084730;28;20004;-78
2022/03/13 05:56:19;;;;;;;;;;;;;;;;;;5084862;28;19954;-77
2022/03/13 05:58:45;;;;;;;;;;;;;;;;;;5084427;28;19919;-78
2022/03/13 06:01:12;;;;;;;;;;;;;;;;;;5074440;28;20011;-78
2022/03/13 06:03:38;;;;;;;;;;;;;;;;;;5082072;28;20352;-78
2022/03/13 06:06:04;;;;;;;;;;;;;;;;;;5079481;28;19943;-78
2022/03/13 06:08:31;;;;;;;;;;;;;;;;;;5090499;28;19923;-77
2022/03/13 06:11:00;;;;;;;;;;;;;;;;;;5090244;28;19924;-77
2022/03/13 06:13:27;;;;;;;;;;;;;;;;;;5085984;28;19939;-76
2022/03/13 06:15:54;;;;;;;;;;;;;;;;;;5080838;28;19959;-78
2022/03/13 06:18:21;;;;;;;;;;;;;;;;;;5085845;28;20048;-78
2022/03/13 06:20:47;;;;;;;;;;;;;;;;;;5083349;28;20080;-78
2022/03/13 06:23:13;;;;;;;;;;;;;;;;;;5084058;28;21753;-78
2022/03/13 06:25:40;;;;;;;;;;;;;;;;;;5102833;28;19912;-77
2022/03/13 06:28:07;;;;;;;;;;;;;;;;;;5084589;28;20055;-76
2022/03/13 06:30:34;;;;;;;;;;;;;;;;;;5079761;28;19963;-77
2022/03/13 06:33:00;;;;;;;;;;;;;;;;;;5100418;28;19959;-79
2022/03/13 06:35:26;;;;;;;;;;;;;;;;;;5085191;28;19959;-78
2022/03/13 06:37:52;;;;;;;;;;;;;;;;;;5086159;28;19952;-78
2022/03/13 06:40:20;;;;;;;;;;;;;;;;;;5089678;28;19952;-78
2022/03/13 06:42:46;;;;;;;;;;;;;;;;;;5088414;28;19947;-78
2022/03/13 06:45:12;;;;;;;;;;;;;;;;;;5088383;28;19963;-77
2022/03/13 06:47:39;;;;;;;;;;;;;;;;;;5088872;28;19962;-79
2022/03/13 06:50:05;;;;;;;;;;;;;;;;;;5088443;28;19940;-79
2022/03/13 06:52:31;;;;;;;;;;;;;;;;;;5087069;28;19959;-78
2022/03/13 06:54:57;;;;;;;;;;;;;;;;;;5087495;28;20320;-78
2022/03/13 06:57:23;;;;;;;;;;;;;;;;;;5085577;28;19959;-77
2022/03/13 06:59:50;;;;;;;;;;;;;;;;;;5086249;28;19960;-78
2022/03/13 07:02:16;;;;;;;;;;;;;;;;;;5082201;28;20499;-77
2022/03/13 07:04:43;;;;;;;;;;;;;;;;;;5086375;28;19923;-78
2022/03/13 07:07:09;;;;;;;;;;;;;;;;;;5086234;28;19971;-77
2022/03/13 07:09:35;;;;;;;;;;;;;;;;;;5085217;28;19940;-78
2022/03/13 07:12:01;;;;;;;;;;;;;;;;;;5087842;28;20415;-77
2022/03/13 07:14:29;;;;;;;;;;;;;;;;;;5085042;28;20477;-77
2022/03/13 07:16:56;;;;;;;;;;;;;;;;;;5080387;28;19958;-77
2022/03/13 07:19:22;;;;;;;;;;;;;;;;;;5085927;28;20395;-77
2022/03/13 07:21:48;;;;;;;;;;;;;;;;;;5087992;28;19964;-78
2022/03/13 07:24:14;;;;;;;;;;;;;;;;;;5088357;28;19975;-78
2022/03/13 07:26:41;;;;;;;;;;;;;;;;;;5083887;28;19948;-78
2022/03/13 07:29:07;;;;;;;;;;;;;;;;;;5083827;28;20366;-79
2022/03/13 07:31:35;;;;;;;;;;;;;;;;;;5079892;28;19967;-78
2022/03/13 07:34:01;;;;;;;;;;;;;;;;;;5083801;28;19964;-78
2022/03/13 07:36:27;;;;;;;;;;;;;;;;;;5084147;28;20335;-78
2022/03/13 07:38:53;;;;;;;;;;;;;;;;;;5084749;28;19951;-77
2022/03/13 07:41:20;;;;;;;;;;;;;;;;;;5086177;28;20454;-78
2022/03/13 07:43:46;;;;;;;;;;;;;;;;;;5087014;28;19959;-78
2022/03/13 07:46:12;;;;;;;;;;;;;;;;;;5083187;28;19979;-78
2022/03/13 07:48:38;;;;;;;;;;;;;;;;;;5086944;28;20042;-78
2022/03/13 07:51:05;;;;;;;;;;;;;;;;;;5070623;28;20380;-78
2022/03/13 07:53:31;;;;;;;;;;;;;;;;;;5089710;28;19912;-78
2022/03/13 07:55:57;;;;;;;;;;;;;;;;;;5081732;28;20071;-78
2022/03/13 07:58:24;;;;;;;;;;;;;;;;;;5081967;28;20423;-78
2022/03/13 08:00:51;;;;;;;;;;;;;;;;;;5082428;28;19958;-79
2022/03/13 08:03:28;;;;;;;;;;;;;;;;;;5083395;28;20611;-79
2022/03/13 08:05:54;;;;;;;;;;;;;;;;;;5085233;28;19959;-78
2022/03/13 08:08:20;;;;;;;;;;;;;;;;;;5067386;28;19916;-78
2022/03/13 08:10:46;;;;;;;;;;;;;;;;;;5083744;28;19955;-78
2022/03/13 08:13:13;;;;;;;;;;;;;;;;;;5082799;28;19970;-77
2022/03/13 08:15:39;;;;;;;;;;;;;;;;;;5085499;28;19963;-79
2022/03/13 08:18:06;;;;;;;;;;;;;;;;;;5072378;28;20009;-78
2022/03/13 08:20:33;;;;;;;;;;;;;;;;;;5083343;28;20431;-78
2022/03/13 08:22:59;;;;;;;;;;;;;;;;;;5084680;28;19963;-78
2022/03/13 08:25:25;;;;;;;;;;;;;;;;;;5087007;28;20005;-77
2022/03/13 08:27:51;;;;;;;;;;;;;;;;;;5080199;28;20224;-78
2022/03/13 08:30:17;;;;;;;;;;;;;;;;;;5082348;28;20366;-78
2022/03/13 08:32:44;;;;;;;;;;;;;;;;;;5077073;28;19956;-78
2022/03/13 08:35:10;;;;;;;;;;;;;;;;;;5082676;28;20320;-78
2022/03/13 08:37:36;;;;;;;;;;;;;;;;;;5084390;28;20072;-77
2022/03/13 08:40:03;;;;;;;;;;;;;;;;;;5082403;28;19963;-76
2022/03/13 08:42:30;;;;;;;;;;;;;;;;;;5087375;28;20414;-76
2022/03/13 08:44:57;;;;;;;;;;;;;;;;;;5084196;28;19913;-76
2022/03/13 08:47:23;;;;;;;;;;;;;;;;;;5084517;28;19924;-76
2022/03/13 08:49:50;;;;;;;;;;;;;;;;;;5083186;28;19946;-78
2022/03/13 08:52:16;;;;;;;;;;;;;;;;;;5083443;28;19967;-78
2022/03/13 08:54:42;;;;;;;;;;;;;;;;;;5078151;28;20359;-78
2022/03/13 08:57:09;;;;;;;;;;;;;;;;;;5082628;28;19940;-77
2022/03/13 08:59:36;;;;;;;;;;;;;;;;;;5082540;28;20355;-77
2022/03/13 09:02:02;;;;;;;;;;;;;;;;;;5081485;28;19951;-78
2022/03/13 09:04:29;;;;;;;;;;;;;;;;;;5079843;28;19964;-78
2022/03/13 09:06:56;;;;;;;;;;;;;;;;;;5080700;28;19944;-77
2022/03/13 09:09:22;;;;;;;;;;;;;;;;;;5083472;28;19955;-77
2022/03/13 09:11:49;;;;;;;;;;;;;;;;;;5094516;28;20814;-78
2022/03/13 09:14:15;;;;;;;;;;;;;;;;;;5081999;28;19959;-77
2022/03/13 09:16:42;;;;;;;;;;;;;;;;;;5081446;28;19966;-77
2022/03/13 09:19:09;;;;;;;;;;;;;;;;;;5078462;28;19963;-77
2022/03/13 09:21:38;;;;;;;;;;;;;;;;;;5079642;28;19920;-78
2022/03/13 09:24:04;;;;;;;;;;;;;;;;;;5078345;28;20449;-76
2022/03/13 09:26:30;;;;;;;;;;;;;;;;;;5081900;28;19939;-75
2022/03/13 09:28:57;;;;;;;;;;;;;;;;;;5085720;28;19951;-76
2022/03/13 09:31:23;;;;;;;;;;;;;;;;;;5083261;28;19966;-75
2022/03/13 09:33:49;;;;;;;;;;;;;;;;;;5084201;28;20020;-77
2022/03/13 09:36:16;;;;;;;;;;;;;;;;;;5081808;28;19952;-76
2022/03/13 09:38:42;;;;;;;;;;;;;;;;;;5080599;28;19950;-77
2022/03/13 09:41:08;;;;;;;;;;;;;;;;;;5081987;28;20028;-75
2022/03/13 09:43:34;;;;;;;;;;;;;;;;;;5082772;28;19955;-76
2022/03/13 09:46:00;;;;;;;;;;;;;;;;;;5082521;28;19947;-75
2022/03/13 09:48:27;;;;;;;;;;;;;;;;;;5082381;28;19952;-75
2022/03/13 09:50:54;;;;;;;;;;;;;;;;;;5080134;28;19977;-77
2022/03/13 09:53:20;;;;;;;;;;;;;;;;;;5083622;28;19951;-76
2022/03/13 09:55:47;;;;;;;;;;;;;;;;;;5081631;28;19954;-77
2022/03/13 09:58:14;;;;;;;;;;;;;;;;;;5080447;28;20010;-77
2022/03/13 10:00:40;;;;;;;;;;;;;;;;;;5081365;28;20406;-78
2022/03/13 10:03:08;;;;;;;;;;;;;;;;;;5087251;28;19939;-77
2022/03/13 10:05:34;;;;;;;;;;;;;;;;;;5085402;28;19952;-77
2022/03/13 10:08:00;;;;;;;;;;;;;;;;;;5085929;28;19955;-76
2022/03/13 10:10:26;;;;;;;;;;;;;;;;;;5085925;28;19939;-77
2022/03/13 10:12:53;;;;;;;;;;;;;;;;;;5086085;28;19959;-74
2022/03/13 10:15:19;;;;;;;;;;;;;;;;;;5081969;28;19963;-75
2022/03/13 10:17:45;;;;;;;;;;;;;;;;;;5068665;28;19960;-75
2022/03/13 10:20:11;;;;;;;;;;;;;;;;;;5081636;28;19951;-75
2022/03/13 10:22:38;;;;;;;;;;;;;;;;;;5085289;28;19955;-76
2022/03/13 10:25:05;;;;;;;;;;;;;;;;;;5080580;28;19983;-76
2022/03/13 10:27:34;;;;;;;;;;;;;;;;;;5089256;27;19944;-76
2022/03/13 10:30:01;;;;;;;;;;;;;;;;;;5086395;28;19959;-77
2022/03/13 10:32:27;;;;;;;;;;;;;;;;;;5086499;28;19948;-77
2022/03/13 10:34:54;;;;;;;;;;;;;;;;;;5088408;28;20376;-77
2022/03/13 10:37:20;;;;;;;;;;;;;;;;;;5084622;28;19951;-77
2022/03/13 10:39:46;;;;;;;;;;;;;;;;;;5089992;28;19954;-77
2022/03/13 10:42:12;;;;;;;;;;;;;;;;;;5088596;28;19952;-77
2022/03/13 10:44:42;;;;;;;;;;;;;;;;;;5081162;28;19916;-76
2022/03/13 10:47:10;;;;;;;;;;;;;;;;;;5085524;28;19920;-74
2022/03/13 10:49:37;;;;;;;;;;;;;;;;;;5084518;28;19920;-76
2022/03/13 10:52:03;;;;;;;;;;;;;;;;;;5082698;28;19948;-77
2022/03/13 10:54:29;;;;;;;;;;;;;;;;;;5086896;28;20009;-76
2022/03/13 10:56:56;;;;;;;;;;;;;;;;;;5087831;28;19985;-77
2022/03/13 10:59:22;;;;;;;;;;;;;;;;;;5087989;28;20383;-77
2022/03/13 11:01:48;;;;;;;;;;;;;;;;;;5087785;28;19965;-76
2022/03/13 11:04:16;;;;;;;;;;;;;;;;;;5064548;28;22595;-76
2022/03/13 11:06:43;;;;;;;;;;;;;;;;;;5085199;28;19970;-76
2022/03/13 11:09:09;;;;;;;;;;;;;;;;;;5088047;28;19952;-76
2022/03/13 11:11:35;;;;;;;;;;;;;;;;;;5085733;28;20352;-76
2022/03/13 11:14:02;;;;;;;;;;;;;;;;;;5083660;28;19951;-77
2022/03/13 11:16:28;;;;;;;;;;;;;;;;;;5085141;28;19957;-76
2022/03/13 11:18:55;;;;;;;;;;;;;;;;;;5059304;28;20111;-77
2022/03/13 11:21:21;;;;;;;;;;;;;;;;;;5085826;28;19997;-77
2022/03/13 11:23:49;;;;;;;;;;;;;;;;;;5087886;28;19948;-77
2022/03/13 11:26:15;;;;;;;;;;;;;;;;;;5078303;28;20620;-77
2022/03/13 11:28:44;;;;;;;;;;;;;;;;;;5089188;28;20303;-77
2022/03/13 11:31:11;;;;;;;;;;;;;;;;;;5085425;28;19950;-77
2022/03/13 11:33:44;;;;;;;;;;;;;;;;;;5086811;28;19966;-76
2022/03/13 11:36:10;;;;;;;;;;;;;;;;;;5086676;28;19967;-77
2022/03/13 11:38:36;;;;;;;;;;;;;;;;;;5088190;28;20409;-76
2022/03/13 11:41:02;;;;;;;;;;;;;;;;;;5082444;28;19951;-75
2022/03/13 11:43:29;;;;;;;;;;;;;;;;;;5086901;28;19992;-76
2022/03/13 11:45:55;;;;;;;;;;;;;;;;;;5085747;28;20155;-76
2022/03/13 11:48:22;;;;;;;;;;;;;;;;;;5085410;28;20593;-76
2022/03/13 11:50:48;;;;;;;;;;;;;;;;;;5084879;28;20042;-76
2022/03/13 11:53:14;;;;;;;;;;;;;;;;;;5095909;27;20258;-76
2022/03/13 11:55:40;;;;;;;;;;;;;;;;;;5088123;28;19970;-76
2022/03/13 11:58:06;;;;;;;;;;;;;;;;;;5107040;28;19959;-76
2022/03/13 12:00:33;;;;;;;;;;;;;;;;;;5082882;28;19951;-76
2022/03/13 12:02:59;;;;;;;;;;;;;;;;;;5105487;27;19947;-76
2022/03/13 12:05:25;;;;;;;;;;;;;;;;;;5105219;28;20028;-76
2022/03/13 12:07:52;;;;;;;;;;;;;;;;;;5073822;28;19951;-76
2022/03/13 12:10:18;;;;;;;;;;;;;;;;;;5090098;28;19959;-76
2022/03/13 12:12:44;;;;;;;;;;;;;;;;;;5100915;28;19955;-76
2022/03/13 12:15:10;;;;;;;;;;;;;;;;;;5084399;28;19946;-76
2022/03/13 12:17:37;;;;;;;;;;;;;;;;;;5086198;28;20510;-77
2022/03/13 12:20:03;;;;;;;;;;;;;;;;;;5080766;28;20052;-77
2022/03/13 12:22:30;;;;;;;;;;;;;;;;;;5087239;28;20326;-77
2022/03/13 12:24:57;;;;;;;;;;;;;;;;;;5085712;28;20313;-77
2022/03/13 12:27:23;;;;;;;;;;;;;;;;;;5083544;28;19924;-76
2022/03/13 12:29:50;;;;;;;;;;;;;;;;;;5081061;28;20007;-77
2022/03/13 12:32:16;;;;;;;;;;;;;;;;;;5082143;28;19944;-77
2022/03/13 12:34:44;;;;;;;;;;;;;;;;;;5086464;28;19916;-77
2022/03/13 12:37:10;;;;;;;;;;;;;;;;;;5066675;28;20010;-76
2022/03/13 12:39:36;;;;;;;;;;;;;;;;;;5085892;28;22594;-77
2022/03/13 12:42:04;;;;;;;;;;;;;;;;;;5086460;28;19947;-77
2022/03/13 12:44:31;;;;;;;;;;;;;;;;;;5083835;28;19976;-77
2022/03/13 12:46:57;;;;;;;;;;;;;;;;;;5082727;28;20421;-78
2022/03/13 12:49:24;;;;;;;;;;;;;;;;;;5079496;28;20047;-77
2022/03/13 12:51:50;;;;;;;;;;;;;;;;;;5081128;28;20335;-83
2022/03/13 12:54:16;;;;;;;;;;;;;;;;;;5099845;28;19947;-83
2022/03/13 12:56:45;;;;;;;;;;;;;;;;;;5082577;28;20032;-78
2022/03/13 12:59:11;;;;;;;;;;;;;;;;;;5085305;28;19952;-77
2022/03/13 13:01:37;;;;;;;;;;;;;;;;;;5082581;28;20420;-78
2022/03/13 13:04:03;;;;;;;;;;;;;;;;;;5082575;28;19963;-77
2022/03/13 13:06:30;;;;;;;;;;;;;;;;;;5082344;28;19958;-77
2022/03/13 13:08:56;;;;;;;;;;;;;;;;;;5087194;28;20351;-78
2022/03/13 13:11:22;;;;;;;;;;;;;;;;;;5085659;28;19973;-76
2022/03/13 13:13:48;;;;;;;;;;;;;;;;;;5085822;28;19959;-76
2022/03/13 13:16:14;;;;;;;;;;;;;;;;;;5085992;28;20293;-76
2022/03/13 13:18:41;;;;;;;;;;;;;;;;;;5083789;28;19959;-75
2022/03/13 13:21:07;;;;;;;;;;;;;;;;;;5078439;28;20358;-75
2022/03/13 13:23:33;;;;;;;;;;;;;;;;;;5077325;28;19959;-76
2022/03/13 13:25:59;;;;;;;;;;;;;;;;;;5081712;28;20455;-76
2022/03/13 13:28:25;;;;;;;;;;;;;;;;;;5081910;28;20340;-76
2022/03/13 13:30:52;;;;;;;;;;;;;;;;;;5081041;28;19952;-76
2022/03/13 13:33:19;;;;;;;;;;;;;;;;;;5083200;28;19959;-75
2022/03/13 13:35:49;;;;;;;;;;;;;;;;;;5083056;28;20000;-76
2022/03/13 13:38:15;;;;;;;;;;;;;;;;;;5081177;28;20341;-75
2022/03/13 13:40:41;;;;;;;;;;;;;;;;;;5084213;28;19948;-76
2022/03/13 13:43:09;;;;;;;;;;;;;;;;;;5081978;28;19970;-77
2022/03/13 13:45:36;;;;;;;;;;;;;;;;;;5084221;28;20032;-77
2022/03/13 13:48:03;;;;;;;;;;;;;;;;;;5080956;28;20009;-76
2022/03/13 13:50:30;;;;;;;;;;;;;;;;;;5082819;28;20397;-76
2022/03/13 13:52:57;;;;;;;;;;;;;;;;;;5081620;28;19966;-76
2022/03/13 13:55:23;;;;;;;;;;;;;;;;;;5080840;28;20435;-75
2022/03/13 13:57:49;;;;;;;;;;;;;;;;;;5080732;28;19970;-76
2022/03/13 14:00:15;;;;;;;;;;;;;;;;;;5079675;28;20176;-76
2022/03/13 14:02:41;;;;;;;;;;;;;;;;;;5083076;28;19952;-76
2022/03/13 14:05:08;;;;;;;;;;;;;;;;;;5082865;28;19955;-75
2022/03/13 14:07:34;;;;;;;;;;;;;;;;;;5081675;28;19951;-76
2022/03/13 14:10:01;;;;;;;;;;;;;;;;;;5077680;28;19958;-78
2022/03/13 14:12:28;;;;;;;;;;;;;;;;;;5078309;28;19955;-76
2022/03/13 14:14:54;;;;;;;;;;;;;;;;;;5081753;28;19986;-79
2022/03/13 14:17:20;;;;;;;;;;;;;;;;;;5085303;28;19944;-76
2022/03/13 14:19:46;;;;;;;;;;;;;;;;;;5068087;28;19916;-76
2022/03/13 14:22:13;;;;;;;;;;;;;;;;;;5081624;28;19954;-76
2022/03/13 14:24:39;;;;;;;;;;;;;;;;;;5081174;28;19916;-76
2022/03/13 14:27:06;;;;;;;;;;;;;;;;;;5080776;28;19962;-76
2022/03/13 14:29:32;;;;;;;;;;;;;;;;;;5082085;28;19955;-76
2022/03/13 14:31:59;;;;;;;;;;;;;;;;;;5081668;28;19962;-76
2022/03/13 14:34:26;;;;;;;;;;;;;;;;;;5080591;28;19954;-76
2022/03/13 14:36:58;;;;;;;;;;;;;;;;;;5083544;28;19975;-77
2022/03/13 14:39:24;;;;;;;;;;;;;;;;;;5082906;28;20547;-76
2022/03/13 14:41:51;;;;;;;;;;;;;;;;;;5082679;28;19955;-77
2022/03/13 14:44:18;;;;;;;;;;;;;;;;;;5084389;28;20571;-77
2022/03/13 14:46:44;;;;;;;;;;;;;;;;;;5086726;28;19951;-76
2022/03/13 14:49:10;;;;;;;;;;;;;;;;;;5088038;28;19960;-76
2022/03/13 14:51:36;;;;;;;;;;;;;;;;;;5089439;28;20247;-76
2022/03/13 14:54:03;;;;;;;;;;;;;;;;;;5088043;28;20564;-77
2022/03/13 14:56:29;;;;;;;;;;;;;;;;;;5083405;28;19963;-75
2022/03/13 14:58:56;;;;;;;;;;;;;;;;;;5088390;28;20379;-77
2022/03/13 15:01:22;;;;;;;;;;;;;;;;;;5086090;28;20445;-76
2022/03/13 15:03:48;;;;;;;;;;;;;;;;;;5091415;28;19970;-77
2022/03/13 15:06:15;;;;;;;;;;;;;;;;;;5086223;28;20349;-77
2022/03/13 15:08:43;;;;;;;;;;;;;;;;;;5086856;28;19948;-76
2022/03/13 15:11:09;;;;;;;;;;;;;;;;;;5085914;28;19953;-76
2022/03/13 15:13:36;;;;;;;;;;;;;;;;;;5087928;28;20305;-76
2022/03/13 15:16:02;;;;;;;;;;;;;;;;;;5086935;28;19944;-76
2022/03/13 15:18:33;;;;;;;;;;;;;;;;;;5083182;28;19952;-77
2022/03/13 15:21:00;;;;;;;;;;;;;;;;;;5086502;28;19962;-76
2022/03/13 15:23:27;;;;;;;;;;;;;;;;;;5063378;28;20654;-77
2022/03/13 15:25:53;;;;;;;;;;;;;;;;;;5084286;28;20364;-77
2022/03/13 15:28:19;;;;;;;;;;;;;;;;;;5083787;28;19924;-78
2022/03/13 15:30:45;;;;;;;;;;;;;;;;;;5084378;28;19977;-76
2022/03/13 15:33:12;;;;;;;;;;;;;;;;;;5082492;28;19943;-76
2022/03/13 15:35:38;;;;;;;;;;;;;;;;;;5095192;28;19958;-77
2022/03/13 15:38:04;;;;;;;;;;;;;;;;;;5082855;28;20030;-77
2022/03/13 15:40:31;;;;;;;;;;;;;;;;;;5082710;28;20015;-77
2022/03/13 15:42:57;;;;;;;;;;;;;;;;;;5083952;28;20050;-77
2022/03/13 15:45:23;;;;;;;;;;;;;;;;;;5083601;28;19951;-78
2022/03/13 15:47:49;;;;;;;;;;;;;;;;;;5100880;28;19946;-77
2022/03/13 15:50:16;;;;;;;;;;;;;;;;;;5083782;28;19928;-77
2022/03/13 15:52:42;;;;;;;;;;;;;;;;;;5082473;28;19973;-77
2022/03/13 15:55:08;;;;;;;;;;;;;;;;;;5067600;28;20005;-77
2022/03/13 15:57:35;;;;;;;;;;;;;;;;;;5081953;28;20409;-77
2022/03/13 16:00:01;;;;;;;;;;;;;;;;;;5086976;28;20435;-76
2022/03/13 16:02:30;;;;;;;;;;;;;;;;;;5083512;28;19958;-77
2022/03/13 16:04:56;;;;;;;;;;;;;;;;;;5077428;28;19940;-77
2022/03/13 16:07:25;;;;;;;;;;;;;;;;;;5077045;28;19935;-78
2022/03/13 16:09:52;;;;;;;;;;;;;;;;;;5080572;28;19954;-78
2022/03/13 16:12:24;;;;;;;;;;;;;;;;;;5081266;28;19948;-78
2022/03/13 16:14:50;;;;;;;;;;;;;;;;;;5084227;28;19959;-77
2022/03/13 16:17:16;;;;;;;;;;;;;;;;;;5086674;28;20323;-77
2022/03/13 16:19:48;;;;;;;;;;;;;;;;;;5085797;28;20436;-78
2022/03/13 16:22:15;;;;;;;;;;;;;;;;;;5083576;28;19959;-77
2022/03/13 16:24:41;;;;;;;;;;;;;;;;;;5067160;28;19939;-76
2022/03/13 16:27:07;;;;;;;;;;;;;;;;;;5085260;28;19947;-76
2022/03/13 16:29:34;;;;;;;;;;;;;;;;;;5087018;28;19967;-77
2022/03/13 16:32:00;;;;;;;;;;;;;;;;;;5083052;28;19948;-77
2022/03/13 16:34:27;;;;;;;;;;;;;;;;;;5085588;28;19959;-77
2022/03/13 16:36:53;;;;;;;;;;;;;;;;;;5081778;28;19959;-77
2022/03/13 16:39:19;;;;;;;;;;;;;;;;;;5083594;28;20373;-77
2022/03/13 16:41:45;;;;;;;;;;;;;;;;;;5082576;28;19951;-76